createdAt,value
2022-09-01T00:00:03.132Z,101562.28
2022-09-01T00:02:33.320Z,101557.91
2022-09-01T00:05:02.916Z,101555.38
2022-09-01T00:07:31.478Z,101558.34
2022-09-01T00:09:59.265Z,101557.66
2022-09-01T00:12:27.497Z,101549.06
2022-09-01T00:14:55.415Z,101552.88
2022-09-01T00:17:23.416Z,101559.38
2022-09-01T00:19:51.388Z,101546.28
2022-09-01T00:22:20.403Z,101556.44
2022-09-01T00:24:48.213Z,101558.41
2022-09-01T00:27:16.184Z,101561.38
2022-09-01T00:29:44.216Z,101559.84
2022-09-01T00:32:12.257Z,101559.13
2022-09-01T00:34:39.999Z,101566.47
2022-09-01T00:37:07.785Z,101563.28
2022-09-01T00:39:37.173Z,101563.53
2022-09-01T00:42:06.982Z,101566.38
2022-09-01T00:44:36.447Z,101570.16
2022-09-01T00:47:07.598Z,101569.31
2022-09-01T00:49:39.850Z,101562.44
2022-09-01T00:52:10.878Z,101568.78
2022-09-01T00:54:44.857Z,101557.50
2022-09-01T00:57:13.886Z,101557.66
2022-09-01T00:59:46.877Z,101557.09
2022-09-01T01:02:15.601Z,101559.06
2022-09-01T01:04:43.681Z,101561.19
2022-09-01T01:07:13.055Z,101560.50
2022-09-01T01:09:45.111Z,101559.91
2022-09-01T01:12:18.174Z,101556.56
2022-09-01T01:14:50.359Z,101560.50
2022-09-01T01:17:19.623Z,101553.75
2022-09-01T01:20:07.474Z,101565.72
2022-09-01T01:23:00.442Z,101557.13
2022-09-01T01:25:30.728Z,101557.56
2022-09-01T01:28:07.305Z,101558.84
2022-09-01T01:30:36.927Z,101569.78
2022-09-01T01:33:05.601Z,101562.19
2022-09-01T01:35:34.906Z,101570.50
2022-09-01T01:38:07.846Z,101564.56
2022-09-01T01:40:38.479Z,101565.56
2022-09-01T01:43:06.942Z,101563.44
2022-09-01T01:45:34.873Z,101562.88
2022-09-01T01:48:08.570Z,101563.16
2022-09-01T01:50:38.065Z,101560.78
2022-09-01T01:53:11.040Z,101565.53
2022-09-01T01:55:43.613Z,101571.03
2022-09-01T01:58:14.967Z,101571.47
2022-09-01T02:00:44.656Z,101573.44
2022-09-01T02:03:17.236Z,101575.53
2022-09-01T02:05:46.100Z,101573.13
2022-09-01T02:08:15.537Z,101575.25
2022-09-01T02:10:46.757Z,101571.00
2022-09-01T02:13:17.063Z,101580.84
2022-09-01T02:15:48.731Z,101584.22
2022-09-01T02:18:19.154Z,101585.19
2022-09-01T02:20:49.355Z,101572.22
2022-09-01T02:23:20.128Z,101580.41
2022-09-01T02:26:14.525Z,101569.97
2022-09-01T02:28:40.036Z,101565.75
2022-09-01T02:31:09.001Z,101571.25
2022-09-01T02:33:38.373Z,101569.66
2022-09-01T02:36:12.707Z,101572.47
2022-09-01T02:38:42.897Z,101566.44
2022-09-01T02:41:19.974Z,101572.03
2022-09-01T02:43:47.883Z,101575.84
2022-09-01T02:46:15.915Z,101573.28
2022-09-01T02:48:46.101Z,101569.91
2022-09-01T02:51:17.129Z,101567.38
2022-09-01T02:53:48.683Z,101569.31
2022-09-01T02:56:18.518Z,101572.13
2022-09-01T02:58:47.787Z,101571.44
2022-09-01T03:01:21.213Z,101570.72
2022-09-01T03:03:50.089Z,101572.69
2022-09-01T03:06:21.009Z,101576.47
2022-09-01T03:08:49.211Z,101571.28
2022-09-01T03:11:19.051Z,101569.56
2022-09-01T03:13:47.404Z,101579.41
2022-09-01T03:16:16.103Z,101575.03
2022-09-01T03:18:45.102Z,101576.03
2022-09-01T03:21:17.636Z,101572.50
2022-09-01T03:23:46.876Z,101574.34
2022-09-01T03:26:18.568Z,101573.75
2022-09-01T03:28:48.847Z,101573.75
2022-09-01T03:31:19.511Z,101575.56
2022-09-01T03:33:49.228Z,101571.34
2022-09-01T03:36:23.137Z,101573.19
2022-09-01T03:38:52.303Z,101570.63
2022-09-01T03:41:25.034Z,101565.41
2022-09-01T03:43:56.710Z,101570.91
2022-09-01T03:46:26.699Z,101563.03
2022-09-01T03:48:58.496Z,101560.56
2022-09-01T03:51:31.089Z,101566.06
2022-09-01T03:54:01.070Z,101568.16
2022-09-01T03:56:30.345Z,101570.94
2022-09-01T03:59:00.666Z,101571.19
2022-09-01T04:01:31.529Z,101576.81
2022-09-01T04:04:01.192Z,101575.25
2022-09-01T04:06:32.244Z,101569.34
2022-09-01T04:09:03.110Z,101564.25
2022-09-01T04:11:33.464Z,101564.53
2022-09-01T04:14:03.198Z,101564.91
2022-09-01T04:16:53.511Z,101560.81
2022-09-01T04:19:26.407Z,101569.22
2022-09-01T04:21:57.288Z,101564.41
2022-09-01T04:24:29.011Z,101570.97
2022-09-01T04:27:02.137Z,101567.00
2022-09-01T04:29:33.338Z,101569.19
2022-09-01T04:32:06.323Z,101572.38
2022-09-01T04:34:38.293Z,101564.63
2022-09-01T04:37:10.029Z,101559.56
2022-09-01T04:39:39.181Z,101568.69
2022-09-01T04:42:09.145Z,101560.91
2022-09-01T04:44:39.939Z,101564.69
2022-09-01T04:47:10.868Z,101571.97
2022-09-01T04:49:39.034Z,101564.09
2022-09-01T04:52:06.805Z,101568.72
2022-09-01T04:54:36.976Z,101559.41
2022-09-01T04:57:06.991Z,101566.66
2022-09-01T04:59:39.095Z,101565.13
2022-09-01T05:02:09.507Z,101563.53
2022-09-01T05:04:37.968Z,101557.47
2022-09-01T05:07:08.374Z,101552.28
2022-09-01T05:09:39.647Z,101563.09
2022-09-01T05:12:27.865Z,101557.84
2022-09-01T05:14:57.492Z,101557.16
2022-09-01T05:17:29.093Z,101558.13
2022-09-01T05:19:57.983Z,101566.97
2022-09-01T05:22:25.789Z,101561.50
2022-09-01T05:25:11.706Z,101560.53
2022-09-01T05:27:42.441Z,101564.91
2022-09-01T05:30:12.660Z,101555.78
2022-09-01T05:32:40.803Z,101564.50
2022-09-01T05:35:10.265Z,101565.34
2022-09-01T05:37:38.802Z,101565.25
2022-09-01T05:40:09.743Z,101565.13
2022-09-01T05:42:40.571Z,101560.38
2022-09-01T05:45:11.719Z,101565.59
2022-09-01T05:47:42.076Z,101572.47
2022-09-01T05:50:14.717Z,101570.41
2022-09-01T05:52:47.803Z,101568.31
2022-09-01T05:55:16.655Z,101562.59
2022-09-01T05:57:45.193Z,101564.75
2022-09-01T06:00:13.677Z,101566.22
2022-09-01T06:02:44.117Z,101570.19
2022-09-01T06:05:19.560Z,101567.56
2022-09-01T06:07:49.331Z,101571.31
2022-09-01T06:10:17.253Z,101563.47
2022-09-01T06:12:45.636Z,101573.53
2022-09-01T06:15:18.600Z,101571.03
2022-09-01T06:17:52.541Z,101568.44
2022-09-01T06:20:22.939Z,101572.75
2022-09-01T06:22:52.519Z,101575.19
2022-09-01T06:25:21.659Z,101570.06
2022-09-01T06:27:49.697Z,101570.81
2022-09-01T06:30:23.826Z,101567.34
2022-09-01T06:33:02.114Z,101565.53
2022-09-01T06:35:30.399Z,101571.63
2022-09-01T06:38:01.806Z,101561.50
2022-09-01T06:40:51.052Z,101576.00
2022-09-01T06:43:23.311Z,101571.72
2022-09-01T06:45:54.579Z,101573.50
2022-09-01T06:48:25.835Z,101571.91
2022-09-01T06:51:21.238Z,101578.63
2022-09-01T06:53:59.164Z,101567.84
2022-09-01T06:56:34.086Z,101578.25
2022-09-01T06:59:10.044Z,101583.03
2022-09-01T07:01:39.440Z,101586.63
2022-09-01T07:04:12.875Z,101584.19
2022-09-01T07:10:06.331Z,101580.56
2022-09-01T07:13:05.056Z,101586.69
2022-09-01T07:16:32.167Z,101591.00
2022-09-01T07:18:25.131Z,101589.78
2022-09-01T07:21:06.934Z,101588.84
2022-09-01T07:26:26.946Z,101582.41
2022-09-01T07:29:04.264Z,101578.22
2022-09-01T07:34:46.203Z,101578.19
2022-09-01T07:42:55.915Z,101593.19
2022-09-01T07:43:19.551Z,101576.69
2022-09-01T07:51:55.184Z,101568.88
2022-09-01T07:54:25.300Z,101579.28
2022-09-01T07:56:55.405Z,101573.66
2022-09-01T07:59:23.733Z,101574.59
2022-09-01T08:01:57.915Z,101586.31
2022-09-01T08:04:26.588Z,101579.88
2022-09-01T08:06:55.811Z,101580.94
2022-09-01T08:09:37.128Z,101581.69
2022-09-01T08:12:07.546Z,101581.41
2022-09-01T08:14:40.179Z,101580.59
2022-09-01T08:19:59.508Z,101577.75
2022-09-01T08:22:49.468Z,101586.47
2022-09-01T08:25:39.338Z,101577.50
2022-09-01T08:28:07.850Z,101578.41
2022-09-01T08:30:36.258Z,101572.53
2022-09-01T08:33:12.163Z,101575.31
2022-09-01T08:35:46.890Z,101579.34
2022-09-01T08:38:15.221Z,101578.28
2022-09-01T08:40:56.067Z,101584.44
2022-09-01T08:43:38.783Z,101582.16
2022-09-01T08:46:13.880Z,101579.44
2022-09-01T08:51:46.432Z,101576.22
2022-09-01T08:54:29.504Z,101575.19
2022-09-01T08:57:03.010Z,101565.56
2022-09-01T08:59:50.954Z,101572.53
2022-09-01T09:02:47.877Z,101571.91
2022-09-01T09:05:30.591Z,101574.06
2022-09-01T09:08:18.124Z,101577.31
2022-09-01T09:10:52.944Z,101569.88
2022-09-01T09:13:29.853Z,101573.47
2022-09-01T09:16:09.227Z,101562.63
2022-09-01T09:18:54.784Z,101559.78
2022-09-01T09:21:26.661Z,101554.34
2022-09-01T09:23:59.935Z,101556.06
2022-09-01T09:26:42.335Z,101550.94
2022-09-01T09:29:11.727Z,101552.88
2022-09-01T09:31:45.891Z,101550.69
2022-09-01T09:34:33.204Z,101546.97
2022-09-01T09:37:23.191Z,101548.91
2022-09-01T09:40:10.419Z,101556.44
2022-09-01T09:42:39.899Z,101550.59
2022-09-01T09:45:23.344Z,101553.13
2022-09-01T09:47:51.123Z,101544.38
2022-09-01T09:50:23.880Z,101548.81
2022-09-01T09:52:53.932Z,101548.59
2022-09-01T09:55:25.393Z,101546.28
2022-09-01T09:57:57.241Z,101546.09
2022-09-01T10:00:28.499Z,101537.53
2022-09-01T10:03:04.667Z,101532.78
2022-09-01T10:05:44.116Z,101532.91
2022-09-01T10:08:14.794Z,101527.28
2022-09-01T10:10:45.716Z,101527.09
2022-09-01T10:13:27.502Z,101527.09
2022-09-01T10:15:59.101Z,101523.69
2022-09-01T10:18:32.219Z,101527.44
2022-09-01T10:21:03.468Z,101516.78
2022-09-01T10:23:36.927Z,101514.66
2022-09-01T10:26:10.880Z,101503.97
2022-09-01T10:28:49.509Z,101518.53
2022-09-01T10:31:19.807Z,101509.13
2022-09-01T10:33:48.438Z,101512.63
2022-09-01T10:36:17.663Z,101512.44
2022-09-01T10:38:50.341Z,101500.16
2022-09-01T10:41:59.791Z,101499.56
2022-09-01T10:44:34.154Z,101494.81
2022-09-01T10:47:13.544Z,101494.19
2022-09-01T10:50:09.755Z,101491.63
2022-09-01T10:52:59.648Z,101498.88
2022-09-01T10:55:32.549Z,101492.06
2022-09-01T11:01:46.681Z,101490.75
2022-09-01T11:04:08.835Z,101489.06
2022-09-01T11:09:45.942Z,101489.66
2022-09-01T11:12:29.262Z,101492.81
2022-09-01T11:14:59.600Z,101479.84
2022-09-01T11:17:29.667Z,101482.72
2022-09-01T11:20:06.297Z,101483.16
2022-09-01T11:22:38.257Z,101486.47
2022-09-01T11:25:12.275Z,101481.84
2022-09-01T11:28:05.710Z,101477.88
2022-09-01T11:30:38.405Z,101481.22
2022-09-01T11:33:19.549Z,101479.56
2022-09-01T11:35:48.974Z,101480.13
2022-09-01T11:38:20.475Z,101477.69
2022-09-01T11:40:56.659Z,101482.28
2022-09-01T11:43:27.173Z,101468.72
2022-09-01T11:46:07.019Z,101477.31
2022-09-01T11:48:35.772Z,101478.63
2022-09-01T11:51:05.473Z,101482.81
2022-09-01T11:53:33.704Z,101473.63
2022-09-01T11:56:14.804Z,101473.63
2022-09-01T11:58:42.561Z,101476.38
2022-09-01T12:01:17.896Z,101461.25
2022-09-01T12:03:47.220Z,101468.75
2022-09-01T12:06:21.951Z,101461.69
2022-09-01T12:08:56.566Z,101457.97
2022-09-01T12:11:30.331Z,101462.00
2022-09-01T12:14:00.815Z,101466.84
2022-09-01T12:16:30.097Z,101463.94
2022-09-01T12:19:00.078Z,101461.00
2022-09-01T12:21:31.703Z,101453.34
2022-09-01T12:24:13.463Z,101450.84
2022-09-01T12:26:41.711Z,101452.53
2022-09-01T12:29:11.241Z,101455.69
2022-09-01T12:31:43.248Z,101457.38
2022-09-01T12:34:29.080Z,101455.75
2022-09-01T12:37:07.423Z,101444.69
2022-09-01T12:39:37.220Z,101446.56
2022-09-01T12:42:13.697Z,101442.78
2022-09-01T12:44:51.265Z,101446.16
2022-09-01T12:47:51.113Z,101435.28
2022-09-01T12:50:52.524Z,101434.78
2022-09-01T12:53:30.342Z,101443.81
2022-09-01T12:56:17.661Z,101444.88
2022-09-01T12:58:53.895Z,101435.63
2022-09-01T13:01:32.369Z,101424.56
2022-09-01T13:04:29.760Z,101426.50
2022-09-01T13:07:02.031Z,101430.94
2022-09-01T13:09:31.065Z,101423.22
2022-09-01T13:12:19.637Z,101420.28
2022-09-01T13:14:47.641Z,101414.00
2022-09-01T13:17:16.288Z,101413.59
2022-09-01T13:19:44.078Z,101405.22
2022-09-01T13:22:12.109Z,101409.00
2022-09-01T13:24:41.215Z,101405.22
2022-09-01T13:27:24.484Z,101407.94
2022-09-01T13:29:52.543Z,101402.06
2022-09-01T13:32:22.629Z,101398.94
2022-09-01T13:34:52.439Z,101395.56
2022-09-01T13:37:21.029Z,101382.19
2022-09-01T13:39:50.766Z,101386.38
2022-09-01T13:42:18.883Z,101390.38
2022-09-01T13:44:49.713Z,101392.00
2022-09-01T13:47:35.413Z,101388.19
2022-09-01T13:50:10.856Z,101381.28
2022-09-01T13:52:41.331Z,101396.31
2022-09-01T13:55:13.029Z,101391.63
2022-09-01T13:57:40.604Z,101392.59
2022-09-01T14:00:11.705Z,101378.56
2022-09-01T14:02:40.159Z,101391.03
2022-09-01T14:05:08.709Z,101383.81
2022-09-01T14:07:37.095Z,101384.09
2022-09-01T14:10:07.456Z,101368.09
2022-09-01T14:12:37.324Z,101362.34
2022-09-01T14:15:16.671Z,101368.81
2022-09-01T14:17:46.051Z,101375.31
2022-09-01T14:20:17.175Z,101363.69
2022-09-01T14:22:45.379Z,101364.81
2022-09-01T14:25:14.314Z,101373.59
2022-09-01T14:27:44.687Z,101367.88
2022-09-01T14:30:16.358Z,101372.78
2022-09-01T14:32:44.750Z,101368.38
2022-09-01T14:35:12.996Z,101361.91
2022-09-01T14:37:41.979Z,101362.25
2022-09-01T14:40:16.575Z,101355.06
2022-09-01T14:42:49.012Z,101349.09
2022-09-01T14:45:18.550Z,101356.47
2022-09-01T14:47:46.835Z,101338.75
2022-09-01T14:50:19.844Z,101348.22
2022-09-01T14:52:52.881Z,101345.38
2022-09-01T14:55:21.368Z,101343.63
2022-09-01T14:57:50.452Z,101341.19
2022-09-01T15:00:18.329Z,101336.38
2022-09-01T15:02:46.954Z,101335.41
2022-09-01T15:05:16.098Z,101346.19
2022-09-01T15:07:44.679Z,101345.78
2022-09-01T15:10:24.366Z,101339.34
2022-09-01T15:12:55.947Z,101345.50
2022-09-01T15:15:24.548Z,101341.56
2022-09-01T15:17:52.630Z,101335.56
2022-09-01T15:20:38.190Z,101345.03
2022-09-01T15:23:06.471Z,101326.03
2022-09-01T15:25:34.667Z,101326.31
2022-09-01T15:28:04.226Z,101321.53
2022-09-01T15:30:32.039Z,101326.31
2022-09-01T15:33:00.545Z,101317.16
2022-09-01T15:35:29.568Z,101316.91
2022-09-01T15:37:58.036Z,101313.38
2022-09-01T15:40:27.108Z,101316.53
2022-09-01T15:42:55.831Z,101317.38
2022-09-01T15:45:26.455Z,101320.50
2022-09-01T15:47:54.605Z,101320.94
2022-09-01T15:50:27.550Z,101316.53
2022-09-01T15:52:57.649Z,101314.88
2022-09-01T15:55:28.194Z,101313.22
2022-09-01T15:57:56.324Z,101315.50
2022-09-01T16:00:27.725Z,101317.63
2022-09-01T16:02:56.525Z,101309.88
2022-09-01T16:05:25.037Z,101315.13
2022-09-01T16:10:21.962Z,101309.63
2022-09-01T16:12:51.711Z,101300.66
2022-09-01T16:15:22.872Z,101306.91
2022-09-01T16:18:18.888Z,101300.81
2022-09-01T16:20:55.883Z,101292.88
2022-09-01T16:23:26.027Z,101298.69
2022-09-01T16:25:54.615Z,101296.59
2022-09-01T16:28:27.396Z,101290.50
2022-09-01T16:31:00.400Z,101288.84
2022-09-01T16:33:29.868Z,101285.25
2022-09-01T16:36:11.527Z,101290.22
2022-09-01T16:38:47.276Z,101283.72
2022-09-01T16:41:28.043Z,101283.94
2022-09-01T16:44:04.561Z,101290.41
2022-09-01T16:46:38.024Z,101292.91
2022-09-01T16:49:28.957Z,101287.47
2022-09-01T16:52:03.786Z,101280.16
2022-09-01T16:54:43.614Z,101283.47
2022-09-01T16:57:17.185Z,101280.75
2022-09-01T16:59:55.557Z,101280.34
2022-09-01T17:02:41.560Z,101283.06
2022-09-01T17:05:20.532Z,101281.53
2022-09-01T17:07:54.001Z,101286.13
2022-09-01T17:10:34.454Z,101283.41
2022-09-01T17:13:16.436Z,101276.47
2022-09-01T17:15:49.863Z,101272.69
2022-09-01T17:18:23.220Z,101277.69
2022-09-01T17:20:58.481Z,101277.03
2022-09-01T17:23:30.626Z,101278.91
2022-09-01T17:26:04.288Z,101266.63
2022-09-01T17:28:37.029Z,101273.72
2022-09-01T17:31:14.445Z,101278.88
2022-09-01T17:33:59.357Z,101274.91
2022-09-01T17:36:43.418Z,101270.09
2022-09-01T17:39:23.822Z,101267.09
2022-09-01T17:41:57.497Z,101275.44
2022-09-01T17:44:35.528Z,101277.69
2022-09-01T17:47:12.472Z,101278.94
2022-09-01T17:49:49.818Z,101276.81
2022-09-01T17:52:27.011Z,101277.22
2022-09-01T17:55:00.093Z,101280.72
2022-09-01T17:57:38.811Z,101279.44
2022-09-01T18:00:10.652Z,101280.25
2022-09-01T18:03:09.663Z,101279.97
2022-09-01T18:05:41.600Z,101278.44
2022-09-01T18:08:30.080Z,101276.50
2022-09-01T18:11:02.348Z,101276.66
2022-09-01T18:13:51.875Z,101276.19
2022-09-01T18:16:24.399Z,101278.16
2022-09-01T18:18:53.357Z,101279.91
2022-09-01T18:21:24.637Z,101279.00
2022-09-01T18:23:59.003Z,101287.88
2022-09-01T18:26:29.677Z,101288.84
2022-09-01T18:28:58.076Z,101285.25
2022-09-01T18:31:57.787Z,101286.84
2022-09-01T18:34:37.368Z,101292.34
2022-09-01T18:37:16.835Z,101295.16
2022-09-01T18:39:56.572Z,101295.09
2022-09-01T18:42:29.934Z,101296.03
2022-09-01T18:45:05.865Z,101296.31
2022-09-01T18:47:35.531Z,101297.69
2022-09-01T18:50:10.369Z,101303.84
2022-09-01T18:52:58.861Z,101304.59
2022-09-01T18:55:37.165Z,101305.31
2022-09-01T18:58:09.293Z,101305.88
2022-09-01T19:00:45.334Z,101307.47
2022-09-01T19:03:27.517Z,101310.06
2022-09-01T19:06:15.154Z,101307.94
2022-09-01T19:08:54.275Z,101304.94
2022-09-01T19:11:33.904Z,101310.41
2022-09-01T19:14:10.967Z,101307.41
2022-09-01T19:16:52.203Z,101312.56
2022-09-01T19:19:33.786Z,101311.56
2022-09-01T19:22:02.076Z,101312.31
2022-09-01T19:24:38.005Z,101315.72
2022-09-01T19:27:14.071Z,101319.97
2022-09-01T19:29:47.875Z,101323.22
2022-09-01T19:32:20.156Z,101319.53
2022-09-01T19:34:54.484Z,101325.00
2022-09-01T19:37:22.945Z,101326.56
2022-09-01T19:39:54.240Z,101329.16
2022-09-01T19:42:27.612Z,101329.84
2022-09-01T19:45:06.844Z,101342.19
2022-09-01T19:47:43.182Z,101339.38
2022-09-01T19:50:19.885Z,101338.22
2022-09-01T19:52:55.514Z,101331.03
2022-09-01T19:55:31.424Z,101344.38
2022-09-01T19:58:04.187Z,101340.53
2022-09-01T20:00:50.689Z,101342.72
2022-09-01T20:03:23.133Z,101345.28
2022-09-01T20:05:56.354Z,101344.63
2022-09-01T20:08:30.290Z,101351.31
2022-09-01T20:11:03.087Z,101343.56
2022-09-01T20:13:47.168Z,101343.44
2022-09-01T20:16:27.187Z,101341.44
2022-09-01T20:19:02.789Z,101338.41
2022-09-01T20:21:31.313Z,101341.47
2022-09-01T20:24:04.336Z,101341.97
2022-09-01T20:26:43.233Z,101332.56
2022-09-01T20:29:19.016Z,101345.53
2022-09-01T20:31:53.390Z,101341.50
2022-09-01T20:34:33.197Z,101341.88
2022-09-01T20:37:07.413Z,101335.13
2022-09-01T20:39:57.977Z,101338.31
2022-09-01T20:42:34.629Z,101336.31
2022-09-01T20:45:10.641Z,101340.34
2022-09-01T20:47:38.410Z,101338.19
2022-09-01T20:50:13.041Z,101336.00
2022-09-01T20:52:49.816Z,101336.50
2022-09-01T20:55:22.552Z,101339.69
2022-09-01T20:57:58.525Z,101339.22
2022-09-01T21:00:29.996Z,101339.72
2022-09-01T21:03:04.453Z,101341.00
2022-09-01T21:05:45.427Z,101336.81
2022-09-01T21:08:37.022Z,101339.34
2022-09-01T21:11:26.222Z,101340.00
2022-09-01T21:14:07.383Z,101338.00
2022-09-01T21:16:47.377Z,101337.66
2022-09-01T21:19:23.211Z,101340.84
2022-09-01T21:22:00.972Z,101333.25
2022-09-01T21:24:28.840Z,101333.91
2022-09-01T21:26:59.025Z,101337.09
2022-09-01T21:29:43.651Z,101343.00
2022-09-01T21:32:13.781Z,101344.31
2022-09-01T21:34:41.883Z,101342.81
2022-09-01T21:37:10.192Z,101342.59
2022-09-01T21:39:38.676Z,101342.28
2022-09-01T21:42:08.502Z,101339.91
2022-09-01T21:44:36.869Z,101342.06
2022-09-01T21:47:05.565Z,101334.50
2022-09-01T21:49:34.751Z,101343.03
2022-09-01T21:52:02.557Z,101339.84
2022-09-01T21:54:30.327Z,101339.34
2022-09-01T21:56:58.052Z,101337.97
2022-09-01T21:59:25.728Z,101339.13
2022-09-01T22:01:53.568Z,101336.91
2022-09-01T22:04:24.344Z,101342.59
2022-09-01T22:06:53.725Z,101333.19
2022-09-01T22:09:22.925Z,101341.53
2022-09-01T22:11:52.227Z,101339.19
2022-09-01T22:14:20.904Z,101336.81
2022-09-01T22:16:50.041Z,101332.75
2022-09-01T22:19:17.887Z,101329.41
2022-09-01T22:21:48.010Z,101333.56
2022-09-01T22:24:19.145Z,101327.66
2022-09-01T22:26:47.936Z,101337.91
2022-09-01T22:29:17.377Z,101326.78
2022-09-01T22:31:45.919Z,101328.94
2022-09-01T22:34:13.710Z,101333.63
2022-09-01T22:36:45.040Z,101325.03
2022-09-01T22:39:13.773Z,101325.53
2022-09-01T22:41:43.771Z,101316.94
2022-09-01T22:44:12.469Z,101327.00
2022-09-01T22:46:40.969Z,101323.13
2022-09-01T22:49:09.701Z,101323.41
2022-09-01T22:51:39.252Z,101322.75
2022-09-01T22:54:08.027Z,101323.88
2022-09-01T22:56:39.416Z,101318.00
2022-09-01T22:59:11.791Z,101320.97
2022-09-01T23:01:42.974Z,101317.78
2022-09-01T23:04:12.501Z,101319.75
2022-09-01T23:06:42.707Z,101314.06
2022-09-01T23:09:10.680Z,101308.81
2022-09-01T23:11:38.646Z,101318.03
2022-09-01T23:14:08.286Z,101313.97
2022-09-01T23:16:36.204Z,101314.13
2022-09-01T23:19:04.646Z,101306.38
2022-09-01T23:21:36.154Z,101310.34
2022-09-01T23:24:04.763Z,101310.50
2022-09-01T23:26:32.884Z,101301.94
2022-09-01T23:29:00.646Z,101299.53
2022-09-01T23:31:32.457Z,101299.88
2022-09-01T23:34:00.233Z,101305.41
2022-09-01T23:36:29.603Z,101296.81
2022-09-01T23:38:57.751Z,101296.81
2022-09-01T23:41:29.282Z,101300.31
2022-09-01T23:43:58.928Z,101288.75
2022-09-01T23:46:30.203Z,101286.91
2022-09-01T23:48:58.181Z,101290.44
2022-09-01T23:51:26.668Z,101286.75
2022-09-01T23:53:54.716Z,101289.44
2022-09-01T23:56:23.917Z,101285.22
2022-09-01T23:58:52.209Z,101278.19
